sensor_id;sensor_type;location;lat;lon;timestamp;pressure;altitude;pressure_sealevel;temperature;humidity
78839;BME280;68405;47.190;27.558;2023-04-30T09:47:12;99466.59;;;29.50;12.05
78839;BME280;68405;47.190;27.558;2023-04-30T09:49:43;99463.56;;;29.02;12.44
78839;BME280;68405;47.190;27.558;2023-04-30T09:52:14;99464.41;;;29.16;12.33
78839;BME280;68405;47.190;27.558;2023-04-30T09:54:44;99469.73;;;29.28;11.97
78839;BME280;68405;47.190;27.558;2023-04-30T09:57:15;99460.61;;;28.89;11.97
78839;BME280;68405;47.190;27.558;2023-04-30T09:59:45;99462.62;;;28.52;12.47
78839;BME280;68405;47.190;27.558;2023-04-30T10:02:15;99456.80;;;28.42;12.01
78839;BME280;68405;47.190;27.558;2023-04-30T10:04:48;99457.73;;;27.75;12.74
78839;BME280;68405;47.190;27.558;2023-04-30T10:07:24;99455.24;;;27.93;12.76
78839;BME280;68405;47.190;27.558;2023-04-30T10:09:57;99449.33;;;28.22;12.14
78839;BME280;68405;47.190;27.558;2023-04-30T10:12:36;99449.44;;;28.21;12.11
78839;BME280;68405;47.190;27.558;2023-04-30T10:15:12;99452.02;;;28.32;13.05
78839;BME280;68405;47.190;27.558;2023-04-30T10:17:45;99449.19;;;28.78;12.22
78839;BME280;68405;47.190;27.558;2023-04-30T10:20:16;99443.34;;;28.29;12.41
78839;BME280;68405;47.190;27.558;2023-04-30T10:22:47;99438.02;;;28.53;12.37
78839;BME280;68405;47.190;27.558;2023-04-30T10:25:16;99440.97;;;28.92;12.62
78839;BME280;68405;47.190;27.558;2023-04-30T10:27:46;99440.58;;;28.62;12.17
78839;BME280;68405;47.190;27.558;2023-04-30T10:30:15;99437.95;;;28.13;12.54
78839;BME280;68405;47.190;27.558;2023-04-30T10:32:50;99446.41;;;28.02;12.89
78839;BME280;68405;47.190;27.558;2023-04-30T10:35:25;99434.48;;;27.61;12.81
78839;BME280;68405;47.190;27.558;2023-04-30T10:38:00;99438.02;;;27.31;13.02
78839;BME280;68405;47.190;27.558;2023-04-30T10:40:37;99440.11;;;26.98;13.62
78839;BME280;68405;47.190;27.558;2023-04-30T10:43:06;99439.52;;;26.83;13.77
78839;BME280;68405;47.190;27.558;2023-04-30T10:45:36;99434.94;;;26.42;13.94
78839;BME280;68405;47.190;27.558;2023-04-30T10:48:06;99431.72;;;26.20;14.32
78839;BME280;68405;47.190;27.558;2023-04-30T10:50:40;99431.45;;;26.04;14.78
78839;BME280;68405;47.190;27.558;2023-04-30T10:53:13;99434.27;;;26.38;14.54
78839;BME280;68405;47.190;27.558;2023-04-30T10:55:53;99436.03;;;26.63;14.59
78839;BME280;68405;47.190;27.558;2023-04-30T10:58:28;99433.44;;;26.12;14.39
78839;BME280;68405;47.190;27.558;2023-04-30T11:01:02;99427.77;;;26.05;14.70
78839;BME280;68405;47.190;27.558;2023-04-30T11:03:31;99424.90;;;25.93;14.36
78839;BME280;68405;47.190;27.558;2023-04-30T11:06:00;99429.75;;;25.69;14.97
78839;BME280;68405;47.190;27.558;2023-04-30T11:08:38;99430.84;;;25.49;14.50
78839;BME280;68405;47.190;27.558;2023-04-30T11:11:08;99429.61;;;25.16;14.91
78839;BME280;68405;47.190;27.558;2023-04-30T11:13:43;99425.08;;;25.04;14.93
78839;BME280;68405;47.190;27.558;2023-04-30T11:16:12;99421.20;;;24.72;15.02
78839;BME280;68405;47.190;27.558;2023-04-30T11:18:45;99416.92;;;24.94;15.91
78839;BME280;68405;47.190;27.558;2023-04-30T11:21:15;99412.39;;;25.03;15.99
78839;BME280;68405;47.190;27.558;2023-04-30T11:23:44;99415.04;;;25.28;15.78
78839;BME280;68405;47.190;27.558;2023-04-30T11:26:18;99421.02;;;25.33;15.98
78839;BME280;68405;47.190;27.558;2023-04-30T11:28:52;99422.00;;;25.34;15.55
78839;BME280;68405;47.190;27.558;2023-04-30T11:31:21;99423.54;;;25.47;15.64
78839;BME280;68405;47.190;27.558;2023-04-30T11:33:50;99424.48;;;25.47;15.86
78839;BME280;68405;47.190;27.558;2023-04-30T11:36:20;99419.50;;;25.69;15.05
78839;BME280;68405;47.190;27.558;2023-04-30T11:38:51;99419.66;;;26.16;14.81
78839;BME280;68405;47.190;27.558;2023-04-30T11:41:21;99420.33;;;26.36;14.17
78839;BME280;68405;47.190;27.558;2023-04-30T11:43:50;99415.92;;;26.58;14.03
78839;BME280;68405;47.190;27.558;2023-04-30T11:46:19;99409.05;;;26.39;13.69
78839;BME280;68405;47.190;27.558;2023-04-30T11:48:48;99410.45;;;26.42;14.31
78839;BME280;68405;47.190;27.558;2023-04-30T11:51:18;99411.55;;;26.19;14.58
78839;BME280;68405;47.190;27.558;2023-04-30T11:53:48;99414.80;;;26.19;14.43
78839;BME280;68405;47.190;27.558;2023-04-30T11:56:22;99407.86;;;26.22;14.02
78839;BME280;68405;47.190;27.558;2023-04-30T11:58:53;99406.64;;;26.17;14.23
78839;BME280;68405;47.190;27.558;2023-04-30T12:01:26;99403.64;;;25.74;14.37
78839;BME280;68405;47.190;27.558;2023-04-30T12:03:56;99405.09;;;25.52;14.45
78839;BME280;68405;47.190;27.558;2023-04-30T12:06:26;99410.80;;;25.33;14.01
78839;BME280;68405;47.190;27.558;2023-04-30T12:08:57;99409.54;;;25.36;14.39
78839;BME280;68405;47.190;27.558;2023-04-30T12:11:27;99400.88;;;25.15;14.59
78839;BME280;68405;47.190;27.558;2023-04-30T12:14:00;99398.17;;;25.40;14.94
78839;BME280;68405;47.190;27.558;2023-04-30T12:16:41;99394.92;;;25.19;15.06
78839;BME280;68405;47.190;27.558;2023-04-30T12:19:12;99392.20;;;24.97;15.34
78839;BME280;68405;47.190;27.558;2023-04-30T12:21:43;99397.70;;;24.60;15.46
78839;BME280;68405;47.190;27.558;2023-04-30T12:24:14;99393.21;;;24.79;16.05
78839;BME280;68405;47.190;27.558;2023-04-30T12:26:44;99396.01;;;24.93;15.56
78839;BME280;68405;47.190;27.558;2023-04-30T12:29:15;99391.44;;;24.89;15.59
78839;BME280;68405;47.190;27.558;2023-04-30T12:31:47;99391.37;;;24.95;15.81
78839;BME280;68405;47.190;27.558;2023-04-30T12:34:17;99387.06;;;24.90;15.51
78839;BME280;68405;47.190;27.558;2023-04-30T12:36:46;99390.17;;;25.08;15.34
78839;BME280;68405;47.190;27.558;2023-04-30T12:39:16;99386.62;;;25.01;15.73
78839;BME280;68405;47.190;27.558;2023-04-30T12:41:46;99383.32;;;25.16;16.07
78839;BME280;68405;47.190;27.558;2023-04-30T12:44:17;99386.99;;;25.12;15.63
78839;BME280;68405;47.190;27.558;2023-04-30T12:46:47;99390.68;;;24.84;15.87
78839;BME280;68405;47.190;27.558;2023-04-30T12:49:27;99385.72;;;24.36;16.10
78839;BME280;68405;47.190;27.558;2023-04-30T12:52:01;99388.32;;;23.97;16.56
78839;BME280;68405;47.190;27.558;2023-04-30T12:54:32;99385.27;;;23.70;17.14
78839;BME280;68405;47.190;27.558;2023-04-30T12:57:03;99381.73;;;23.53;17.83
78839;BME280;68405;47.190;27.558;2023-04-30T12:59:35;99382.81;;;23.52;17.97
78839;BME280;68405;47.190;27.558;2023-04-30T13:02:10;99384.22;;;23.46;17.74
78839;BME280;68405;47.190;27.558;2023-04-30T13:04:40;99380.41;;;23.32;17.55
78839;BME280;68405;47.190;27.558;2023-04-30T13:07:10;99380.41;;;23.15;17.43
78839;BME280;68405;47.190;27.558;2023-04-30T13:09:39;99380.63;;;23.07;17.58
78839;BME280;68405;47.190;27.558;2023-04-30T13:12:09;99372.98;;;22.79;17.61
78839;BME280;68405;47.190;27.558;2023-04-30T13:14:38;99369.27;;;22.71;17.74
78839;BME280;68405;47.190;27.558;2023-04-30T13:17:07;99373.88;;;22.70;18.08
78839;BME280;68405;47.190;27.558;2023-04-30T13:19:39;99373.64;;;22.61;18.06
78839;BME280;68405;47.190;27.558;2023-04-30T13:22:09;99370.39;;;22.42;17.91
78839;BME280;68405;47.190;27.558;2023-04-30T13:24:38;99370.29;;;22.32;18.24
78839;BME280;68405;47.190;27.558;2023-04-30T13:27:07;99368.81;;;22.15;18.38
78839;BME280;68405;47.190;27.558;2023-04-30T13:29:36;99369.81;;;21.92;18.82
78839;BME280;68405;47.190;27.558;2023-04-30T13:32:06;99367.63;;;21.83;18.89
78839;BME280;68405;47.190;27.558;2023-04-30T13:34:35;99366.23;;;21.88;18.54
78839;BME280;68405;47.190;27.558;2023-04-30T13:37:04;99374.60;;;21.82;19.30
78839;BME280;68405;47.190;27.558;2023-04-30T13:39:34;99376.73;;;21.68;19.39
78839;BME280;68405;47.190;27.558;2023-04-30T13:42:03;99380.11;;;21.37;19.43
78839;BME280;68405;47.190;27.558;2023-04-30T13:44:32;99382.47;;;21.10;19.33
78839;BME280;68405;47.190;27.558;2023-04-30T13:47:01;99385.16;;;20.88;19.93
78839;BME280;68405;47.190;27.558;2023-04-30T13:49:30;99384.32;;;20.71;20.09
78839;BME280;68405;47.190;27.558;2023-04-30T13:51:59;99385.45;;;20.58;20.25
78839;BME280;68405;47.190;27.558;2023-04-30T13:54:28;99385.52;;;20.63;20.50
78839;BME280;68405;47.190;27.558;2023-04-30T13:56:57;99384.84;;;20.65;20.61
78839;BME280;68405;47.190;27.558;2023-04-30T13:59:26;99387.41;;;20.64;21.12
78839;BME280;68405;47.190;27.558;2023-04-30T14:01:56;99386.68;;;20.64;20.41
78839;BME280;68405;47.190;27.558;2023-04-30T14:04:25;99384.13;;;20.63;20.11
78839;BME280;68405;47.190;27.558;2023-04-30T14:06:55;99385.63;;;20.64;20.39
78839;BME280;68405;47.190;27.558;2023-04-30T14:09:24;99386.88;;;20.55;20.39
78839;BME280;68405;47.190;27.558;2023-04-30T14:11:54;99386.86;;;20.45;20.56
78839;BME280;68405;47.190;27.558;2023-04-30T14:14:26;99380.64;;;20.43;21.00
78839;BME280;68405;47.190;27.558;2023-04-30T14:16:55;99376.30;;;20.51;20.69
78839;BME280;68405;47.190;27.558;2023-04-30T14:19:24;99376.73;;;20.54;21.00
78839;BME280;68405;47.190;27.558;2023-04-30T14:21:54;99378.23;;;20.49;20.81
78839;BME280;68405;47.190;27.558;2023-04-30T14:24:23;99374.36;;;20.49;21.30
78839;BME280;68405;47.190;27.558;2023-04-30T14:26:53;99373.09;;;20.47;20.96
78839;BME280;68405;47.190;27.558;2023-04-30T14:29:22;99373.29;;;20.32;21.19
78839;BME280;68405;47.190;27.558;2023-04-30T14:31:52;99369.92;;;20.20;21.27
78839;BME280;68405;47.190;27.558;2023-04-30T14:34:21;99373.52;;;20.12;21.39
78839;BME280;68405;47.190;27.558;2023-04-30T14:36:51;99371.77;;;20.04;21.21
78839;BME280;68405;47.190;27.558;2023-04-30T15:20:43;99375.52;;;20.33;22.13
78839;BME280;68405;47.190;27.558;2023-04-30T15:23:14;99379.75;;;20.52;21.65
78839;BME280;68405;47.190;27.558;2023-04-30T15:25:46;99381.84;;;20.56;21.45
78839;BME280;68405;47.190;27.558;2023-04-30T15:28:18;99381.69;;;20.54;21.25
78839;BME280;68405;47.190;27.558;2023-04-30T15:30:50;99379.46;;;20.49;21.40
78839;BME280;68405;47.190;27.558;2023-04-30T15:33:22;99381.66;;;20.44;21.13
78839;BME280;68405;47.190;27.558;2023-04-30T15:35:56;99380.39;;;20.32;21.08
78839;BME280;68405;47.190;27.558;2023-04-30T15:38:29;99379.58;;;20.26;21.29
78839;BME280;68405;47.190;27.558;2023-04-30T15:41:00;99381.17;;;20.24;21.26
78839;BME280;68405;47.190;27.558;2023-04-30T15:43:32;99380.27;;;20.20;21.21
78839;BME280;68405;47.190;27.558;2023-04-30T15:46:04;99383.20;;;20.16;21.22
78839;BME280;68405;47.190;27.558;2023-04-30T15:48:35;99386.67;;;20.15;21.13
78839;BME280;68405;47.190;27.558;2023-04-30T15:51:07;99386.02;;;20.12;21.03
78839;BME280;68405;47.190;27.558;2023-04-30T15:53:39;99387.25;;;20.10;21.06
78839;BME280;68405;47.190;27.558;2023-04-30T15:56:10;99386.89;;;20.02;21.10
78839;BME280;68405;47.190;27.558;2023-04-30T15:58:42;99390.40;;;19.93;21.07
78839;BME280;68405;47.190;27.558;2023-04-30T16:01:14;99390.23;;;19.86;21.34
78839;BME280;68405;47.190;27.558;2023-04-30T16:03:45;99392.33;;;19.80;21.48
78839;BME280;68405;47.190;27.558;2023-04-30T16:06:17;99389.91;;;19.75;21.55
78839;BME280;68405;47.190;27.558;2023-04-30T16:08:49;99386.25;;;19.70;21.34
78839;BME280;68405;47.190;27.558;2023-04-30T16:11:21;99388.30;;;19.64;21.54
78839;BME280;68405;47.190;27.558;2023-04-30T16:13:52;99383.30;;;19.58;21.59
78839;BME280;68405;47.190;27.558;2023-04-30T16:16:24;99383.90;;;19.55;21.77
78839;BME280;68405;47.190;27.558;2023-04-30T16:18:56;99388.84;;;19.53;21.79
78839;BME280;68405;47.190;27.558;2023-04-30T16:21:27;99387.75;;;19.44;21.72
78839;BME280;68405;47.190;27.558;2023-04-30T16:24:01;99390.14;;;19.34;21.87
78839;BME280;68405;47.190;27.558;2023-04-30T16:26:32;99386.41;;;19.21;21.78
78839;BME280;68405;47.190;27.558;2023-04-30T16:29:05;99386.61;;;19.10;21.73
78839;BME280;68405;47.190;27.558;2023-04-30T16:31:36;99390.35;;;18.97;22.02
78839;BME280;68405;47.190;27.558;2023-04-30T16:34:08;99394.74;;;18.88;22.11
78839;BME280;68405;47.190;27.558;2023-04-30T16:36:41;99395.52;;;18.78;22.12
78839;BME280;68405;47.190;27.558;2023-04-30T16:39:12;99397.02;;;18.67;22.05
78839;BME280;68405;47.190;27.558;2023-04-30T16:41:44;99395.72;;;18.57;22.47
78839;BME280;68405;47.190;27.558;2023-04-30T16:44:16;99397.55;;;18.46;22.72
78839;BME280;68405;47.190;27.558;2023-04-30T16:46:47;99396.00;;;18.36;22.57
78839;BME280;68405;47.190;27.558;2023-04-30T16:49:19;99399.45;;;18.28;22.58
78839;BME280;68405;47.190;27.558;2023-04-30T16:51:51;99399.35;;;18.17;22.68
78839;BME280;68405;47.190;27.558;2023-04-30T16:54:22;99394.73;;;18.06;22.91
78839;BME280;68405;47.190;27.558;2023-04-30T16:56:54;99392.86;;;17.95;22.69
78839;BME280;68405;47.190;27.558;2023-04-30T16:59:25;99396.09;;;17.84;22.92
78839;BME280;68405;47.190;27.558;2023-04-30T17:01:57;99400.46;;;17.75;22.93
78839;BME280;68405;47.190;27.558;2023-04-30T17:04:29;99402.37;;;17.65;23.29
78839;BME280;68405;47.190;27.558;2023-04-30T17:07:02;99405.00;;;17.53;23.60
78839;BME280;68405;47.190;27.558;2023-04-30T17:09:33;99403.21;;;17.41;23.60
78839;BME280;68405;47.190;27.558;2023-04-30T17:12:05;99403.61;;;17.27;23.93
78839;BME280;68405;47.190;27.558;2023-04-30T17:14:37;99404.24;;;17.16;23.68
78839;BME280;68405;47.190;27.558;2023-04-30T17:17:09;99410.54;;;17.04;24.30
78839;BME280;68405;47.190;27.558;2023-04-30T17:19:40;99407.48;;;16.91;23.97
78839;BME280;68405;47.190;27.558;2023-04-30T17:22:12;99411.27;;;16.79;24.16
78839;BME280;68405;47.190;27.558;2023-04-30T17:24:45;99412.15;;;16.66;24.22
78839;BME280;68405;47.190;27.558;2023-04-30T17:27:16;99413.32;;;16.54;24.35
78839;BME280;68405;47.190;27.558;2023-04-30T17:29:48;99416.55;;;16.42;24.67
78839;BME280;68405;47.190;27.558;2023-04-30T17:32:19;99419.29;;;16.30;24.71
78839;BME280;68405;47.190;27.558;2023-04-30T17:34:51;99421.16;;;16.17;25.31
78839;BME280;68405;47.190;27.558;2023-04-30T17:37:22;99422.61;;;16.05;25.46
78839;BME280;68405;47.190;27.558;2023-04-30T17:39:54;99422.31;;;15.93;25.44
78839;BME280;68405;47.190;27.558;2023-04-30T17:42:25;99430.55;;;15.83;25.43
78839;BME280;68405;47.190;27.558;2023-04-30T17:44:57;99433.27;;;15.72;25.60
78839;BME280;68405;47.190;27.558;2023-04-30T17:47:29;99436.23;;;15.61;25.58
78839;BME280;68405;47.190;27.558;2023-04-30T17:50:01;99435.08;;;15.52;26.02
78839;BME280;68405;47.190;27.558;2023-04-30T17:52:37;99433.64;;;15.41;25.99
78839;BME280;68405;47.190;27.558;2023-04-30T17:55:10;99436.96;;;15.32;25.73
78839;BME280;68405;47.190;27.558;2023-04-30T17:57:42;99444.02;;;15.23;25.97
78839;BME280;68405;47.190;27.558;2023-04-30T18:00:15;99449.46;;;15.13;26.05
78839;BME280;68405;47.190;27.558;2023-04-30T18:02:47;99451.62;;;15.04;26.90
78839;BME280;68405;47.190;27.558;2023-04-30T18:05:19;99450.30;;;14.94;26.86
78839;BME280;68405;47.190;27.558;2023-04-30T18:07:50;99452.04;;;14.85;26.66
78839;BME280;68405;47.190;27.558;2023-04-30T18:10:22;99455.25;;;14.78;26.91
78839;BME280;68405;47.190;27.558;2023-04-30T18:12:55;99460.40;;;14.71;27.35
78839;BME280;68405;47.190;27.558;2023-04-30T18:15:27;99457.70;;;14.59;27.61
78839;BME280;68405;47.190;27.558;2023-04-30T18:17:59;99460.84;;;14.50;27.49
78839;BME280;68405;47.190;27.558;2023-04-30T18:20:30;99464.98;;;14.42;27.62
78839;BME280;68405;47.190;27.558;2023-04-30T18:23:02;99464.34;;;14.35;27.67
78839;BME280;68405;47.190;27.558;2023-04-30T18:25:35;99467.55;;;14.27;28.13
78839;BME280;68405;47.190;27.558;2023-04-30T18:28:07;99470.17;;;14.21;28.01
78839;BME280;68405;47.190;27.558;2023-04-30T18:30:38;99474.18;;;14.15;27.99
78839;BME280;68405;47.190;27.558;2023-04-30T18:33:10;99476.86;;;14.07;28.27
78839;BME280;68405;47.190;27.558;2023-04-30T18:35:41;99480.39;;;14.00;28.32
78839;BME280;68405;47.190;27.558;2023-04-30T18:38:16;99482.84;;;13.94;28.38
78839;BME280;68405;47.190;27.558;2023-04-30T18:40:53;99486.21;;;13.87;28.21
78839;BME280;68405;47.190;27.558;2023-04-30T18:43:25;99483.96;;;13.80;28.55
78839;BME280;68405;47.190;27.558;2023-04-30T18:45:57;99486.45;;;13.72;28.39
78839;BME280;68405;47.190;27.558;2023-04-30T18:48:29;99485.11;;;13.65;28.81
78839;BME280;68405;47.190;27.558;2023-04-30T18:51:01;99485.39;;;13.56;28.80
78839;BME280;68405;47.190;27.558;2023-04-30T18:53:32;99488.39;;;13.49;28.89
78839;BME280;68405;47.190;27.558;2023-04-30T18:56:06;99488.61;;;13.42;28.86
78839;BME280;68405;47.190;27.558;2023-04-30T18:58:38;99490.72;;;13.34;28.84
78839;BME280;68405;47.190;27.558;2023-04-30T19:01:10;99493.56;;;13.26;28.75
78839;BME280;68405;47.190;27.558;2023-04-30T19:03:41;99492.21;;;13.18;29.27
78839;BME280;68405;47.190;27.558;2023-04-30T19:06:13;99495.33;;;13.12;29.01
78839;BME280;68405;47.190;27.558;2023-04-30T19:08:45;99492.38;;;13.05;29.15
78839;BME280;68405;47.190;27.558;2023-04-30T19:11:17;99495.66;;;12.98;29.13
78839;BME280;68405;47.190;27.558;2023-04-30T19:13:49;99493.60;;;12.91;29.12
78839;BME280;68405;47.190;27.558;2023-04-30T19:16:21;99499.50;;;12.85;29.18
78839;BME280;68405;47.190;27.558;2023-04-30T19:18:52;99499.21;;;12.80;29.37
78839;BME280;68405;47.190;27.558;2023-04-30T19:21:25;99500.20;;;12.74;29.63
78839;BME280;68405;47.190;27.558;2023-04-30T19:23:59;99498.89;;;12.69;29.88
78839;BME280;68405;47.190;27.558;2023-04-30T19:26:32;99501.16;;;12.61;29.83
78839;BME280;68405;47.190;27.558;2023-04-30T19:29:06;99502.84;;;12.55;29.84
78839;BME280;68405;47.190;27.558;2023-04-30T19:31:38;99499.50;;;12.49;30.18
78839;BME280;68405;47.190;27.558;2023-04-30T19:34:10;99497.01;;;12.42;30.04
78839;BME280;68405;47.190;27.558;2023-04-30T19:36:42;99501.27;;;12.37;30.65
78839;BME280;68405;47.190;27.558;2023-04-30T19:39:14;99502.27;;;12.35;31.65
78839;BME280;68405;47.190;27.558;2023-04-30T19:41:45;99505.39;;;12.32;31.95
78839;BME280;68405;47.190;27.558;2023-04-30T19:44:19;99512.58;;;12.27;31.75
